Time;durP1;ratioP1;P1;durP2;ratioP2;P2;SDS_P1;SDS_P2;PMS_P1;PMS_P2;Temp;Humidity;BMP_temperature;BMP_pressure;BME280_temperature;BME280_humidity;BME280_pressure;Samples;Min_cycle;Max_cycle;Signal;HPM_P1;HPM_P2
2022/11/24 07:38:19;;;;;;;9.20;1.90;;;5.70;99.90;;;;;;5137670;27;20279;-80
2022/11/24 07:40:44;;;;;;;5.30;1.67;;;5.70;99.90;;;;;;5118744;28;20922;-80
2022/11/24 07:43:10;;;;;;;5.33;2.23;;;5.70;99.90;;;;;;5136489;28;20421;-80
2022/11/24 07:45:36;;;;;;;7.63;2.13;;;5.80;99.90;;;;;;5136693;28;20244;-80
2022/11/24 07:48:02;;;;;;;4.67;1.40;;;5.80;99.90;;;;;;5135323;28;20625;-80
2022/11/24 07:50:28;;;;;;;5.43;1.90;;;5.90;99.90;;;;;;5135014;28;20451;-80
2022/11/24 07:52:53;;;;;;;5.97;1.77;;;6.10;99.90;;;;;;5136070;27;20257;-80
2022/11/24 07:55:19;;;;;;;6.37;1.80;;;6.20;99.90;;;;;;5134780;28;20261;-80
2022/11/24 07:57:45;;;;;;;4.77;2.00;;;6.30;99.90;;;;;;5135373;27;20217;-80
2022/11/24 08:00:11;;;;;;;5.40;2.23;;;6.50;99.90;;;;;;5136051;27;20167;-80
2022/11/24 08:02:37;;;;;;;4.17;1.37;;;6.50;99.90;;;;;;5134931;27;20231;-81
2022/11/24 08:05:03;;;;;;;8.37;1.80;;;6.50;99.90;;;;;;5134849;27;20296;-80
2022/11/24 08:07:29;;;;;;;5.10;1.63;;;6.50;99.90;;;;;;5132917;28;20203;-80
2022/11/24 08:09:55;;;;;;;4.20;2.10;;;6.50;99.90;;;;;;5133229;28;20746;-80
2022/11/24 08:12:21;;;;;;;7.30;2.10;;;6.40;99.90;;;;;;5133148;28;20192;-80
2022/11/24 08:14:50;;;;;;;7.47;1.87;;;6.40;99.90;;;;;;5132187;28;20180;-80
2022/11/24 08:17:18;;;;;;;4.07;1.77;;;6.30;99.90;;;;;;5131812;27;20207;-80
2022/11/24 08:19:44;;;;;;;5.93;1.90;;;6.30;99.90;;;;;;5131564;27;20242;-81
2022/11/24 08:22:10;;;;;;;13.23;5.40;;;6.30;99.90;;;;;;5140100;28;20698;-80
2022/11/24 08:24:36;;;;;;;10.17;2.77;;;6.40;99.90;;;;;;5138279;28;20171;-80
2022/11/24 08:27:02;;;;;;;6.43;1.73;;;6.50;99.90;;;;;;5138956;27;20200;-81
2022/11/24 08:29:28;;;;;;;4.73;1.60;;;6.50;99.90;;;;;;5137770;28;20187;-80
2022/11/24 08:31:56;;;;;;;11.70;2.17;;;6.80;99.90;;;;;;5137950;28;20186;-80
2022/11/24 08:34:23;;;;;;;8.20;2.07;;;6.90;99.90;;;;;;5139092;27;20172;-80
2022/11/24 08:36:49;;;;;;;6.90;3.10;;;6.90;99.90;;;;;;5137745;28;20283;-81
2022/11/24 08:39:15;;;;;;;9.47;4.00;;;6.90;99.90;;;;;;5139957;27;20630;-81
2022/11/24 08:41:41;;;;;;;4.73;2.30;;;6.80;99.90;;;;;;5137777;27;20175;-81
2022/11/24 08:44:09;;;;;;;11.03;2.40;;;6.70;99.90;;;;;;5140437;27;20188;-81
2022/11/24 08:46:34;;;;;;;7.53;2.70;;;6.70;99.90;;;;;;5136928;28;20225;-81
2022/11/24 08:49:00;;;;;;;9.47;3.00;;;6.80;99.90;;;;;;5127998;28;20636;-80
2022/11/24 08:51:27;;;;;;;7.30;2.63;;;6.70;99.90;;;;;;5123859;28;20184;-81
2022/11/24 08:53:57;;;;;;;4.97;2.27;;;6.60;99.90;;;;;;5122902;28;20662;-80
2022/11/24 08:56:24;;;;;;;12.50;4.50;;;6.60;99.90;;;;;;5121418;28;20233;-81
2022/11/24 08:58:50;;;;;;;6.37;1.90;;;6.60;99.90;;;;;;5121511;28;20180;-81
2022/11/24 09:01:17;;;;;;;18.70;6.97;;;6.60;99.90;;;;;;5136744;28;20169;-80
2022/11/24 09:03:44;;;;;;;15.27;4.37;;;6.70;99.90;;;;;;5140066;28;20182;-80
2022/11/24 09:06:10;;;;;;;7.87;2.97;;;6.70;99.90;;;;;;5139670;27;20275;-81
2022/11/24 09:08:36;;;;;;;7.80;4.47;;;6.80;99.90;;;;;;5138595;28;20211;-80
2022/11/24 09:11:05;;;;;;;7.83;3.50;;;6.70;99.90;;;;;;5139379;28;20188;-80
2022/11/24 09:13:31;;;;;;;4.00;1.87;;;6.60;99.90;;;;;;5138685;28;20186;-80
2022/11/24 09:16:05;;;;;;;6.70;1.70;;;6.50;99.90;;;;;;5139041;27;20203;-80
2022/11/24 09:18:31;;;;;;;7.20;1.83;;;6.40;99.90;;;;;;5139310;28;20250;-80
2022/11/24 09:21:17;;;;;;;8.70;1.70;;;6.30;99.90;;;;;;5137938;28;20241;-81
2022/11/24 11:33:21;;;;;;;3.67;1.20;;;6.40;99.90;;;;;;5140793;27;20267;-80
2022/11/24 11:35:46;;;;;;;2.57;1.10;;;6.60;99.90;;;;;;5141955;28;20194;-80
2022/11/24 11:38:12;;;;;;;3.50;1.10;;;6.60;99.90;;;;;;5141760;27;20418;-80
2022/11/24 11:40:41;;;;;;;3.17;1.60;;;6.60;99.90;;;;;;5139635;28;20262;-81
2022/11/24 11:43:24;;;;;;;3.40;1.53;;;6.70;99.90;;;;;;5140821;28;20312;-81
2022/11/24 11:46:23;;;;;;;2.67;1.00;;;6.90;99.90;;;;;;5140788;28;20195;-81
2022/11/24 11:48:49;;;;;;;4.90;1.40;;;7.10;99.90;;;;;;5137417;27;20275;-81
2022/11/24 11:51:36;;;;;;;6.13;1.67;;;7.10;99.90;;;;;;5139622;28;20677;-81
2022/11/24 11:54:38;;;;;;;4.63;1.20;;;7.00;99.90;;;;;;5141389;27;20158;-82
2022/11/24 11:57:15;;;;;;;2.63;1.20;;;7.00;99.90;;;;;;5139692;28;20538;-82
2022/11/24 11:59:57;;;;;;;3.13;1.50;;;6.90;99.90;;;;;;5141663;27;20156;-82
2022/11/24 12:02:47;;;;;;;4.80;1.60;;;6.90;99.90;;;;;;5139891;28;20176;-82
2022/11/24 12:05:28;;;;;;;6.90;3.37;;;6.90;99.90;;;;;;5141418;27;20156;-82
2022/11/24 12:08:18;;;;;;;6.73;3.10;;;7.00;99.90;;;;;;5139830;28;20258;-82
2022/11/24 12:10:55;;;;;;;5.73;1.97;;;7.00;99.90;;;;;;5141075;28;20513;-81
2022/11/24 12:13:47;;;;;;;3.03;2.00;;;7.00;99.90;;;;;;5139547;28;20602;-82
2022/11/24 12:16:23;;;;;;;6.27;2.77;;;7.20;99.90;;;;;;5139667;28;20192;-82
2022/11/24 12:19:01;;;;;;;4.93;2.00;;;7.50;99.90;;;;;;5141072;27;20145;-82
2022/11/24 12:21:26;;;;;;;4.03;2.10;;;7.90;99.90;;;;;;5141241;27;20176;-82
2022/11/24 12:24:29;;;;;;;4.10;1.80;;;8.10;99.90;;;;;;5139882;28;20245;-82
2022/11/24 12:27:03;;;;;;;6.23;1.40;;;8.10;99.90;;;;;;5140054;28;20295;-81
2022/11/24 12:29:53;;;;;;;2.73;1.80;;;8.20;99.90;;;;;;5140280;28;20177;-82
2022/11/24 12:32:34;;;;;;;6.10;2.17;;;8.20;99.90;;;;;;5142159;28;20695;-81
2022/11/24 12:35:05;;;;;;;5.13;1.97;;;8.10;99.90;;;;;;5142644;27;20199;-83
2022/11/24 12:37:49;;;;;;;5.23;2.23;;;7.90;99.90;;;;;;5141594;27;20217;-83
2022/11/24 12:40:34;;;;;;;4.90;1.90;;;8.00;99.90;;;;;;5139922;28;20235;-82
2022/11/24 12:43:21;;;;;;;2.77;1.40;;;8.20;99.90;;;;;;5134947;28;20310;-81
2022/11/24 12:46:03;;;;;;;2.53;1.10;;;8.10;99.90;;;;;;5129062;28;20206;-79
2022/11/24 12:48:44;;;;;;;5.60;1.50;;;8.00;99.90;;;;;;5132583;28;20183;-81
2022/11/24 12:51:26;;;;;;;4.17;1.87;;;8.00;99.90;;;;;;5124753;28;20201;-81
2022/11/24 12:53:54;;;;;;;4.33;1.60;;;7.90;99.90;;;;;;5126987;28;20199;-82
2022/11/24 12:56:33;;;;;;;4.30;1.80;;;8.00;99.90;;;;;;5124419;28;20229;-81
2022/11/24 12:59:13;;;;;;;6.33;2.40;;;8.00;99.90;;;;;;5123785;28;20181;-81
2022/11/24 13:01:48;;;;;;;7.33;2.70;;;8.10;99.90;;;;;;5123846;28;20180;-81
2022/11/24 13:04:34;;;;;;;9.37;3.97;;;8.10;99.90;;;;;;5124133;28;20183;-82
2022/11/24 13:07:12;;;;;;;11.77;5.57;;;8.20;99.90;;;;;;5125261;28;20193;-81
2022/11/24 13:10:17;;;;;;;3.63;2.13;;;8.20;99.90;;;;;;5125714;28;20244;-82
2022/11/24 13:13:13;;;;;;;3.87;2.00;;;8.30;99.90;;;;;;5124096;28;20270;-81
2022/11/24 13:15:54;;;;;;;4.90;2.20;;;8.30;99.90;;;;;;5110961;28;20185;-82
2022/11/24 13:18:56;;;;;;;20.80;8.93;;;8.20;99.90;;;;;;5123481;28;20265;-82
2022/11/24 13:21:40;;;;;;;4.37;1.50;;;8.20;99.90;;;;;;5123497;28;20176;-82
2022/11/24 13:24:24;;;;;;;4.87;2.40;;;8.00;99.90;;;;;;5126219;28;20164;-82
2022/11/24 13:27:13;;;;;;;6.00;3.87;;;8.00;99.90;;;;;;5123830;28;20202;-82
2022/11/24 13:29:41;;;;;;;5.30;1.90;;;7.90;99.90;;;;;;5123217;28;20173;-82
2022/11/24 13:32:10;;;;;;;4.63;1.20;;;7.80;99.90;;;;;;5123815;28;20240;-81
2022/11/24 13:34:42;;;;;;;4.57;1.50;;;7.80;99.90;;;;;;5124190;28;20178;-81
2022/11/24 13:37:22;;;;;;;5.43;2.03;;;7.80;99.90;;;;;;5122940;28;20190;-80
2022/11/24 13:40:19;;;;;;;4.93;2.40;;;7.60;99.90;;;;;;5122003;27;20161;-80
2022/11/24 13:42:57;;;;;;;1.70;1.17;;;7.70;99.90;;;;;;5107041;28;20186;-81
2022/11/24 13:45:38;;;;;;;2.40;1.20;;;7.70;99.90;;;;;;5121157;28;20188;-80
2022/11/24 13:48:19;;;;;;;2.87;1.10;;;7.60;99.90;;;;;;5119488;28;20176;-80
2022/11/24 13:50:54;;;;;;;2.73;1.30;;;7.50;99.90;;;;;;5119671;28;20177;-81
2022/11/24 13:53:40;;;;;;;4.03;1.30;;;7.40;99.90;;;;;;5119458;28;20169;-80
2022/11/24 13:56:22;;;;;;;4.13;1.10;;;7.40;99.90;;;;;;5123586;27;20264;-80
2022/11/24 13:58:57;;;;;;;3.43;1.13;;;7.50;99.90;;;;;;5136115;27;20633;-81
2022/11/24 14:01:35;;;;;;;5.07;1.33;;;7.50;99.90;;;;;;5133297;27;20165;-81
2022/11/24 14:04:24;;;;;;;3.53;1.40;;;7.60;99.90;;;;;;5118040;28;20177;-81
2022/11/24 14:06:57;;;;;;;5.27;1.73;;;7.70;99.90;;;;;;5116878;28;20565;-80
2022/11/24 14:09:45;;;;;;;2.03;1.40;;;7.80;99.90;;;;;;5123293;27;20203;-80
2022/11/24 14:12:17;;;;;;;3.73;1.93;;;7.90;99.90;;;;;;5136027;27;20188;-80
2022/11/24 14:14:45;;;;;;;4.23;1.30;;;8.00;99.90;;;;;;5135126;27;20164;-81
2022/11/24 14:17:18;;;;;;;4.63;1.90;;;8.10;99.90;;;;;;5139866;27;20546;-80
2022/11/24 14:19:47;;;;;;;9.53;3.37;;;8.10;99.90;;;;;;5143173;27;20704;-81
2022/11/24 14:22:25;;;;;;;3.93;1.50;;;8.20;99.90;;;;;;5142440;27;20177;-80
2022/11/24 14:25:01;;;;;;;4.00;1.30;;;8.00;99.90;;;;;;5129296;27;20286;-81
2022/11/24 14:27:30;;;;;;;4.73;1.20;;;7.80;99.90;;;;;;5120793;28;20249;-81
2022/11/24 14:30:01;;;;;;;4.23;1.37;;;7.70;99.90;;;;;;5132505;27;20225;-80
2022/11/24 14:32:27;;;;;;;4.40;1.20;;;7.50;99.90;;;;;;5140106;27;20260;-81
2022/11/24 14:34:53;;;;;;;2.77;1.23;;;7.60;99.90;;;;;;5140479;27;20173;-81
2022/11/24 14:37:19;;;;;;;9.43;4.37;;;7.70;99.90;;;;;;5135797;27;20184;-81
2022/11/24 14:39:46;;;;;;;2.23;1.40;;;7.60;99.90;;;;;;5122105;28;20173;-81
2022/11/24 14:42:17;;;;;;;3.23;1.20;;;7.50;99.90;;;;;;5121285;28;20199;-79
2022/11/24 14:44:46;;;;;;;5.73;1.93;;;7.30;99.90;;;;;;5122741;27;20643;-81
2022/11/24 14:47:35;;;;;;;5.50;1.93;;;7.20;99.90;;;;;;5144231;27;20194;-81
2022/11/24 14:50:14;;;;;;;6.20;3.60;;;7.10;99.90;;;;;;5142735;27;20182;-81
2022/11/24 14:52:56;;;;;;;7.63;3.53;;;7.00;99.90;;;;;;5144540;27;20183;-81
2022/11/24 14:55:41;;;;;;;21.90;8.70;;;6.90;99.90;;;;;;5142038;27;20593;-80
2022/11/24 14:58:29;;;;;;;7.23;4.47;;;6.90;99.90;;;;;;5138688;27;20197;-81
2022/11/24 15:01:32;;;;;;;9.30;5.57;;;6.80;99.90;;;;;;5142591;27;20186;-81
2022/11/24 15:04:24;;;;;;;1.93;1.73;;;6.80;99.90;;;;;;5063829;28;20290;-80
2022/11/24 15:07:03;;;;;;;7.07;2.40;;;6.70;99.90;;;;;;5141988;27;20204;-81
2022/11/24 15:09:39;;;;;;;3.83;1.47;;;6.70;99.90;;;;;;5143405;27;20175;-81
2022/11/24 15:12:27;;;;;;;6.47;1.67;;;6.70;99.90;;;;;;5144327;27;20186;-81
2022/11/24 15:15:00;;;;;;;5.33;1.57;;;6.70;99.90;;;;;;5143233;27;20175;-81
2022/11/24 15:17:27;;;;;;;4.03;2.10;;;6.70;99.90;;;;;;5144004;27;20736;-81
2022/11/24 15:20:20;;;;;;;8.90;3.53;;;6.70;99.90;;;;;;5143329;27;20270;-81
2022/11/24 15:22:45;;;;;;;16.53;7.17;;;6.70;99.90;;;;;;5137304;27;20187;-80
2022/11/24 15:25:32;;;;;;;5.90;3.57;;;6.60;99.90;;;;;;5143934;27;20207;-81
2022/11/24 15:27:58;;;;;;;9.27;2.93;;;6.60;99.90;;;;;;5144090;28;20171;-81
2022/11/24 15:30:25;;;;;;;14.13;6.80;;;6.60;99.90;;;;;;5145322;28;20167;-81
2022/11/24 15:32:56;;;;;;;9.93;4.33;;;6.50;99.90;;;;;;5144225;28;20551;-81
2022/11/24 15:35:22;;;;;;;12.50;7.03;;;6.50;99.90;;;;;;5145691;28;20171;-81
2022/11/24 15:37:49;;;;;;;9.83;4.00;;;6.50;99.90;;;;;;5145123;28;20183;-81
2022/11/24 15:40:15;;;;;;;5.87;3.03;;;6.50;99.90;;;;;;5145629;28;20594;-81
2022/11/24 15:42:42;;;;;;;6.90;2.40;;;6.50;99.90;;;;;;5143398;28;20417;-80
2022/11/24 15:45:09;;;;;;;5.30;2.20;;;6.50;99.90;;;;;;5144707;28;20163;-81
2022/11/24 15:47:35;;;;;;;10.80;3.03;;;6.40;99.90;;;;;;5141333;28;20199;-81
2022/11/24 15:50:00;;;;;;;10.67;3.77;;;6.40;99.90;;;;;;5143432;28;20175;-81
2022/11/24 15:52:26;;;;;;;11.83;7.03;;;6.40;99.90;;;;;;5143419;28;20195;-81
2022/11/24 15:54:54;;;;;;;6.80;3.17;;;6.30;99.90;;;;;;5142861;28;20238;-83
2022/11/24 15:57:19;;;;;;;17.60;5.63;;;6.30;99.90;;;;;;5144590;28;20187;-81
2022/11/24 15:59:45;;;;;;;10.57;5.87;;;6.20;99.90;;;;;;5142684;28;20250;-81
2022/11/24 16:02:11;;;;;;;17.97;7.30;;;6.20;99.90;;;;;;5143992;28;20239;-81
2022/11/24 16:04:40;;;;;;;21.67;9.33;;;6.10;99.90;;;;;;5145111;28;20529;-81
2022/11/24 16:07:12;;;;;;;11.80;4.43;;;6.10;99.90;;;;;;5142596;28;20201;-81
2022/11/24 16:09:38;;;;;;;12.37;8.23;;;6.10;99.90;;;;;;5142083;28;20201;-81
2022/11/24 16:12:04;;;;;;;51.07;30.13;;;6.10;99.90;;;;;;5143912;28;20199;-81
2022/11/24 16:14:29;;;;;;;8.73;4.17;;;6.00;99.90;;;;;;5145376;28;20167;-81
2022/11/24 16:16:55;;;;;;;5.70;3.50;;;6.00;99.90;;;;;;5142581;27;20192;-82
2022/11/24 16:19:21;;;;;;;9.07;3.30;;;6.00;99.90;;;;;;5144010;27;20254;-81
2022/11/24 16:21:47;;;;;;;7.57;3.37;;;6.00;99.90;;;;;;5146893;27;20175;-82
2022/11/24 16:24:12;;;;;;;8.13;3.43;;;6.00;99.90;;;;;;5148191;27;20171;-82
2022/11/24 16:26:38;;;;;;;7.93;3.67;;;6.00;99.90;;;;;;5145871;27;20202;-80
2022/11/24 16:29:04;;;;;;;5.10;2.80;;;6.00;99.90;;;;;;5147475;27;20250;-81
2022/11/24 16:31:30;;;;;;;5.10;2.40;;;5.90;99.90;;;;;;5147551;27;20211;-81
2022/11/24 16:33:55;;;;;;;5.13;2.43;;;5.90;99.90;;;;;;5152533;27;20750;-81
2022/11/24 16:36:21;;;;;;;7.20;3.00;;;;;;;;;;5151565;27;20196;-80
2022/11/24 16:38:47;;;;;;;7.23;2.73;;;5.80;99.90;;;;;;5146232;27;20542;-80
2022/11/24 16:41:13;;;;;;;8.27;3.63;;;5.70;99.90;;;;;;5140892;27;20174;-80
2022/11/24 16:43:39;;;;;;;7.60;2.90;;;;;;;;;;5141538;27;20181;-80
2022/11/24 16:46:07;;;;;;;6.53;3.13;;;5.60;99.90;;;;;;5141507;27;20716;-80
2022/11/24 16:48:36;;;;;;;7.67;3.17;;;5.60;99.90;;;;;;5141183;27;20174;-80
2022/11/24 16:51:07;;;;;;;7.23;3.73;;;5.60;99.90;;;;;;5140137;27;20758;-80
2022/11/24 16:53:33;;;;;;;9.40;3.27;;;5.60;99.90;;;;;;5141677;27;20175;-80
2022/11/24 16:55:58;;;;;;;8.43;4.03;;;5.50;99.90;;;;;;5140483;27;20285;-80
2022/11/24 16:58:24;;;;;;;6.63;3.73;;;5.50;99.90;;;;;;5141672;27;20266;-81
2022/11/24 17:00:49;;;;;;;12.03;4.90;;;5.50;99.90;;;;;;5138811;27;20664;-80
